createdAt,value
2018-03-16T00:00:50.513Z,7.15
2018-03-16T00:01:50.489Z,7.16
2018-03-16T00:02:50.465Z,7.19
2018-03-16T00:03:50.440Z,7.09
2018-03-16T00:04:50.413Z,7.13
2018-03-16T00:05:50.393Z,7.12
2018-03-16T00:06:50.367Z,7.15
2018-03-16T00:07:50.343Z,7.05
2018-03-16T00:08:50.314Z,7.13
2018-03-16T00:09:50.293Z,7.13
2018-03-16T00:10:50.268Z,7.12
2018-03-16T00:11:50.247Z,7.12
2018-03-16T00:12:50.220Z,7.08
2018-03-16T00:13:50.193Z,7.08
2018-03-16T00:14:50.171Z,7.16
2018-03-16T00:15:50.141Z,7.01
2018-03-16T00:16:50.119Z,7.04
2018-03-16T00:17:50.088Z,7.04
2018-03-16T00:18:50.066Z,7.04
2018-03-16T00:19:50.040Z,7.02
2018-03-16T00:20:50.015Z,6.95
2018-03-16T00:21:49.993Z,6.98
2018-03-16T00:22:49.965Z,6.89
2018-03-16T00:23:49.944Z,6.87
2018-03-16T00:24:49.964Z,6.83
2018-03-16T00:25:49.889Z,6.90
2018-03-16T00:26:49.864Z,6.91
2018-03-16T00:27:49.839Z,6.91
2018-03-16T00:28:49.812Z,6.90
2018-03-16T00:29:49.787Z,6.77
2018-03-16T00:30:49.763Z,6.91
2018-03-16T00:31:49.739Z,6.94
2018-03-16T00:32:49.711Z,6.94
2018-03-16T00:33:49.690Z,6.94
2018-03-16T00:34:49.661Z,6.90
2018-03-16T00:35:49.635Z,6.79
2018-03-16T00:36:49.610Z,6.90
2018-03-16T00:37:49.587Z,6.83
2018-03-16T00:38:49.559Z,6.84
2018-03-16T00:39:49.534Z,6.84
2018-03-16T00:40:49.509Z,6.81
2018-03-16T00:41:49.483Z,6.79
2018-03-16T00:42:49.459Z,6.86
2018-03-16T00:43:49.435Z,6.73
2018-03-16T00:44:49.407Z,6.72
2018-03-16T00:45:49.382Z,6.81
2018-03-16T00:46:49.359Z,6.68
2018-03-16T00:47:49.332Z,6.54
2018-03-16T00:48:49.305Z,6.46
2018-03-16T00:49:49.279Z,6.35
2018-03-16T00:50:49.258Z,6.29
2018-03-16T00:51:49.227Z,6.35
2018-03-16T00:52:49.204Z,6.22
2018-03-16T00:53:49.177Z,6.25
2018-03-16T00:54:49.150Z,6.09
2018-03-16T00:55:49.126Z,6.16
2018-03-16T00:56:49.098Z,5.98
2018-03-16T00:57:49.074Z,5.92
2018-03-16T00:58:49.050Z,5.91
2018-03-16T00:59:49.027Z,5.93
2018-03-16T01:00:48.996Z,5.83
2018-03-16T01:01:48.972Z,5.85
2018-03-16T01:02:48.947Z,5.85
2018-03-16T01:03:48.921Z,5.81
2018-03-16T01:04:48.895Z,5.89
2018-03-16T01:05:48.870Z,5.85
2018-03-16T01:06:48.843Z,6.04
2018-03-16T01:07:48.819Z,6.11
2018-03-16T01:08:48.794Z,6.10
2018-03-16T01:09:48.767Z,6.11
2018-03-16T01:10:48.740Z,6.07
2018-03-16T01:11:48.716Z,6.18
2018-03-16T01:12:48.689Z,6.30
2018-03-16T01:13:48.665Z,6.21
2018-03-16T01:14:48.642Z,6.13
2018-03-16T01:15:48.614Z,6.14
2018-03-16T01:16:48.587Z,6.29
2018-03-16T01:17:48.561Z,6.29
2018-03-16T01:18:48.536Z,6.09
2018-03-16T01:19:48.511Z,6.14
2018-03-16T01:20:48.484Z,6.01
2018-03-16T01:21:48.459Z,5.95
2018-03-16T01:22:48.434Z,5.95
2018-03-16T01:23:48.409Z,5.82
2018-03-16T01:24:48.382Z,5.83
2018-03-16T01:25:48.355Z,5.73
2018-03-16T01:26:48.331Z,5.71
2018-03-16T01:27:48.308Z,5.59
2018-03-16T01:28:48.277Z,5.60
2018-03-16T01:29:48.252Z,5.53
2018-03-16T01:30:48.231Z,5.46
2018-03-16T01:31:48.201Z,5.40
2018-03-16T01:32:48.189Z,5.32
2018-03-16T01:33:48.150Z,5.31
2018-03-16T01:34:48.122Z,5.17
2018-03-16T01:35:48.097Z,5.07
2018-03-16T01:36:48.069Z,5.10
2018-03-16T01:37:48.045Z,4.96
2018-03-16T01:38:48.021Z,4.95
2018-03-16T01:39:47.995Z,4.92
2018-03-16T01:40:47.966Z,4.94
2018-03-16T01:41:47.943Z,4.98
2018-03-16T01:42:47.914Z,5.13
2018-03-16T01:43:47.890Z,5.41
2018-03-16T01:44:47.964Z,5.50
2018-03-16T01:45:47.836Z,5.66
2018-03-16T01:46:47.814Z,5.77
2018-03-16T01:47:47.785Z,5.96
2018-03-16T01:48:47.759Z,6.06
2018-03-16T01:49:47.732Z,6.14
2018-03-16T01:50:47.706Z,6.38
2018-03-16T01:51:47.681Z,6.41
2018-03-16T01:52:47.653Z,6.38
2018-03-16T01:53:47.632Z,6.33
2018-03-16T01:54:47.600Z,6.41
2018-03-16T01:55:47.576Z,6.36
2018-03-16T01:56:47.548Z,6.33
2018-03-16T01:57:47.522Z,6.32
2018-03-16T01:58:47.498Z,6.32
2018-03-16T01:59:47.471Z,6.30
2018-03-16T02:00:47.446Z,6.29
2018-03-16T02:01:47.421Z,6.33
2018-03-16T02:02:47.392Z,6.29
2018-03-16T02:03:47.367Z,6.18
2018-03-16T02:04:47.339Z,6.10
2018-03-16T02:05:47.315Z,6.11
2018-03-16T02:06:47.286Z,6.14
2018-03-16T02:07:47.262Z,6.13
2018-03-16T02:08:47.235Z,6.11
2018-03-16T02:09:47.210Z,6.03
2018-03-16T02:10:49.436Z,5.95
2018-03-16T02:11:47.158Z,5.88
2018-03-16T02:12:47.130Z,5.83
2018-03-16T02:13:47.106Z,5.75
2018-03-16T02:14:47.078Z,5.74
2018-03-16T02:15:47.052Z,5.64
2018-03-16T02:16:47.027Z,5.57
2018-03-16T02:17:46.999Z,5.52
2018-03-16T02:18:46.975Z,5.55
2018-03-16T02:19:46.948Z,5.66
2018-03-16T02:20:46.921Z,5.67
2018-03-16T02:21:46.901Z,5.78
2018-03-16T02:22:46.872Z,5.75
2018-03-16T02:23:46.845Z,5.81
2018-03-16T02:24:46.818Z,5.81
2018-03-16T02:25:46.792Z,5.82
2018-03-16T02:26:46.765Z,5.77
2018-03-16T02:27:46.740Z,5.83
2018-03-16T02:28:46.714Z,5.86
2018-03-16T02:29:46.688Z,5.95
2018-03-16T02:30:46.661Z,5.96
2018-03-16T02:31:46.638Z,6.06
2018-03-16T02:32:46.610Z,6.09
2018-03-16T02:33:46.585Z,6.18
2018-03-16T02:34:46.560Z,6.13
2018-03-16T02:35:46.533Z,6.07
2018-03-16T02:36:46.505Z,6.07
2018-03-16T02:37:46.484Z,6.03
2018-03-16T02:38:46.453Z,6.01
2018-03-16T02:39:46.429Z,6.07
2018-03-16T02:40:46.402Z,6.01
2018-03-16T02:41:46.375Z,6.07
2018-03-16T02:42:46.350Z,6.10
2018-03-16T02:43:47.078Z,6.13
2018-03-16T02:44:46.298Z,6.16
2018-03-16T02:45:46.271Z,6.06
2018-03-16T02:46:46.246Z,5.96
2018-03-16T02:47:46.221Z,5.93
2018-03-16T02:48:46.194Z,5.85
2018-03-16T02:49:46.168Z,5.89
2018-03-16T02:50:46.141Z,5.74
2018-03-16T02:51:46.115Z,5.59
2018-03-16T02:52:46.088Z,5.48
2018-03-16T02:53:46.066Z,5.30
2018-03-16T02:54:46.037Z,5.27
2018-03-16T02:55:46.012Z,5.22
2018-03-16T02:56:45.985Z,5.17
2018-03-16T02:57:45.958Z,5.14
2018-03-16T02:58:45.935Z,5.17
2018-03-16T02:59:45.907Z,5.14
2018-03-16T03:00:45.880Z,5.04
2018-03-16T03:01:45.855Z,4.92
2018-03-16T03:02:45.828Z,4.89
2018-03-16T03:03:45.802Z,4.94
2018-03-16T03:04:45.774Z,4.88
2018-03-16T03:05:45.749Z,4.77
2018-03-16T03:06:45.784Z,4.79
2018-03-16T03:07:45.697Z,4.84
2018-03-16T03:08:45.670Z,4.73
2018-03-16T03:09:45.643Z,4.73
2018-03-16T03:10:45.614Z,4.73
2018-03-16T03:11:45.588Z,4.69
2018-03-16T03:12:45.562Z,4.61
2018-03-16T03:13:45.538Z,4.69
2018-03-16T03:14:45.512Z,4.54
2018-03-16T03:15:45.483Z,4.54
2018-03-16T03:16:45.457Z,4.54
2018-03-16T03:17:45.431Z,4.55
2018-03-16T03:18:45.406Z,4.55
2018-03-16T03:19:45.377Z,4.44
2018-03-16T03:20:45.351Z,4.39
2018-03-16T03:21:45.325Z,4.57
2018-03-16T03:22:45.300Z,4.51
2018-03-16T03:23:45.272Z,4.43
2018-03-16T03:24:45.245Z,4.39
2018-03-16T03:25:45.217Z,4.42
2018-03-16T03:26:45.193Z,4.39
2018-03-16T03:27:45.165Z,4.36
2018-03-16T03:28:45.139Z,4.28
2018-03-16T03:29:45.113Z,4.25
2018-03-16T03:30:45.097Z,4.18
2018-03-16T03:31:45.063Z,4.15
2018-03-16T03:32:45.031Z,4.08
2018-03-16T03:33:45.009Z,4.08
2018-03-16T03:34:44.979Z,4.12
2018-03-16T03:35:44.953Z,4.06
2018-03-16T03:36:46.427Z,4.07
2018-03-16T03:37:44.906Z,4.00
2018-03-16T03:38:44.872Z,4.03
2018-03-16T03:39:44.845Z,3.88
2018-03-16T03:40:44.817Z,3.78
2018-03-16T03:41:44.790Z,3.70
2018-03-16T03:42:45.515Z,3.64
2018-03-16T03:43:44.738Z,3.68
2018-03-16T03:44:44.710Z,3.65
2018-03-16T03:45:44.683Z,3.68
2018-03-16T03:46:44.655Z,3.71
2018-03-16T03:47:44.628Z,3.75
2018-03-16T03:48:44.609Z,3.76
2018-03-16T03:49:44.575Z,3.75
2018-03-16T03:50:44.547Z,3.72
2018-03-16T03:51:44.523Z,3.85
2018-03-16T03:52:44.492Z,3.89
2018-03-16T03:53:44.467Z,4.03
2018-03-16T03:54:44.440Z,4.07
2018-03-16T03:55:44.412Z,4.03
2018-03-16T03:56:44.385Z,4.07
2018-03-16T03:57:44.356Z,4.04
2018-03-16T03:58:44.332Z,3.97
2018-03-16T03:59:44.306Z,3.98
2018-03-16T04:00:44.278Z,4.03
2018-03-16T04:01:44.253Z,4.14
2018-03-16T04:02:44.222Z,4.07
2018-03-16T04:03:44.196Z,4.04
2018-03-16T04:04:44.167Z,4.01
2018-03-16T04:05:44.141Z,3.76
2018-03-16T04:06:44.118Z,3.71
2018-03-16T04:07:44.088Z,3.71
2018-03-16T04:08:44.060Z,3.76
2018-03-16T04:09:44.033Z,3.88
2018-03-16T04:10:44.004Z,3.76
2018-03-16T04:11:43.979Z,3.50
2018-03-16T04:12:43.949Z,3.43
2018-03-16T04:13:43.922Z,3.42
2018-03-16T04:14:43.897Z,3.42
2018-03-16T04:15:43.870Z,3.39
2018-03-16T04:16:43.841Z,3.46
2018-03-16T04:17:43.814Z,3.42
2018-03-16T04:18:43.787Z,3.44
2018-03-16T04:19:43.758Z,3.36
2018-03-16T04:20:43.730Z,3.42
2018-03-16T04:21:43.709Z,3.44
2018-03-16T04:22:43.675Z,3.54
2018-03-16T04:23:43.653Z,3.61
2018-03-16T04:24:43.621Z,3.62
2018-03-16T04:25:43.595Z,3.70
2018-03-16T04:26:43.567Z,3.70
2018-03-16T04:27:43.540Z,3.72
2018-03-16T04:28:43.512Z,3.80
2018-03-16T04:29:43.489Z,3.78
2018-03-16T04:30:43.460Z,3.76
2018-03-16T04:31:43.430Z,3.82
2018-03-16T04:32:43.403Z,3.70
2018-03-16T04:33:43.375Z,3.80
2018-03-16T04:34:43.348Z,3.83
2018-03-16T04:35:43.324Z,3.90
2018-03-16T04:36:44.797Z,3.96
2018-03-16T04:37:43.266Z,3.97
2018-03-16T04:38:43.240Z,4.04
2018-03-16T04:39:43.212Z,4.07
2018-03-16T04:40:43.185Z,4.06
2018-03-16T04:41:43.161Z,4.06
2018-03-16T04:42:43.884Z,4.18
2018-03-16T04:43:43.104Z,4.10
2018-03-16T04:44:43.078Z,4.21
2018-03-16T04:45:43.050Z,4.18
2018-03-16T04:46:43.023Z,4.21
2018-03-16T04:47:42.996Z,4.16
2018-03-16T04:48:42.968Z,4.33
2018-03-16T04:49:42.941Z,4.28
2018-03-16T04:50:42.917Z,4.34
2018-03-16T04:51:42.890Z,4.40
2018-03-16T04:52:42.860Z,4.40
2018-03-16T04:53:42.835Z,4.51
2018-03-16T04:54:42.807Z,4.52
2018-03-16T04:55:42.782Z,4.50
2018-03-16T04:56:42.753Z,4.44
2018-03-16T04:57:42.726Z,4.64
2018-03-16T04:58:42.704Z,4.61
2018-03-16T04:59:42.674Z,4.62
2018-03-16T05:00:42.650Z,4.62
2018-03-16T05:01:42.620Z,4.65
2018-03-16T05:02:42.594Z,4.67
2018-03-16T05:03:43.317Z,4.69
2018-03-16T05:04:42.541Z,4.67
2018-03-16T05:05:42.514Z,4.70
2018-03-16T05:06:42.488Z,4.67
2018-03-16T05:07:42.461Z,4.64
2018-03-16T05:08:42.434Z,4.75
2018-03-16T05:09:42.408Z,4.84
2018-03-16T05:10:42.383Z,4.73
2018-03-16T05:11:42.356Z,4.75
2018-03-16T05:12:42.330Z,4.79
2018-03-16T05:13:42.305Z,4.84
2018-03-16T05:14:42.277Z,4.83
2018-03-16T05:15:42.283Z,4.95
2018-03-16T05:16:42.225Z,4.92
2018-03-16T05:17:42.197Z,4.91
2018-03-16T05:18:42.171Z,4.92
2018-03-16T05:19:42.146Z,4.96
2018-03-16T05:20:42.118Z,4.99
2018-03-16T05:21:42.093Z,5.04
2018-03-16T05:22:42.068Z,4.96
2018-03-16T05:23:42.042Z,4.92
2018-03-16T05:24:42.012Z,4.98
2018-03-16T05:25:41.991Z,4.95
2018-03-16T05:26:41.964Z,5.01
2018-03-16T05:27:41.940Z,5.02
2018-03-16T05:28:41.909Z,4.98
2018-03-16T05:29:41.881Z,5.04
2018-03-16T05:30:41.856Z,4.99
2018-03-16T05:31:41.833Z,5.09
2018-03-16T05:32:41.810Z,5.07
2018-03-16T05:33:41.778Z,4.98
2018-03-16T05:34:41.752Z,4.98
2018-03-16T05:35:41.728Z,5.02
2018-03-16T05:36:41.698Z,4.96
2018-03-16T05:37:41.674Z,4.92
2018-03-16T05:38:41.648Z,4.95
2018-03-16T05:39:41.623Z,4.91
2018-03-16T05:40:41.652Z,4.91
2018-03-16T05:41:41.568Z,4.94
2018-03-16T05:42:41.544Z,4.99
2018-03-16T05:43:41.517Z,4.94
2018-03-16T05:44:41.490Z,4.98
2018-03-16T05:45:41.464Z,4.86
2018-03-16T05:46:41.438Z,4.91
2018-03-16T05:47:41.412Z,4.96
2018-03-16T05:48:41.386Z,5.01
2018-03-16T05:49:41.360Z,4.99
2018-03-16T05:50:41.334Z,5.01
2018-03-16T05:51:41.307Z,5.09
2018-03-16T05:52:41.282Z,5.14
2018-03-16T05:53:41.258Z,5.05
2018-03-16T05:54:41.230Z,5.20
2018-03-16T05:55:41.203Z,5.19
2018-03-16T05:56:41.177Z,5.10
2018-03-16T05:57:41.155Z,5.16
2018-03-16T05:58:41.124Z,5.12
2018-03-16T05:59:41.099Z,5.23
2018-03-16T06:00:41.075Z,5.10
2018-03-16T06:01:41.047Z,5.20
2018-03-16T06:02:41.022Z,5.23
2018-03-16T06:03:40.995Z,5.16
2018-03-16T06:04:40.970Z,5.22
2018-03-16T06:05:40.943Z,5.25
2018-03-16T06:06:41.665Z,5.25
2018-03-16T06:07:40.892Z,5.25
2018-03-16T06:08:40.864Z,5.31
2018-03-16T06:09:40.838Z,5.35
2018-03-16T06:10:40.813Z,5.35
2018-03-16T06:11:40.788Z,5.38
2018-03-16T06:12:40.764Z,5.41
2018-03-16T06:13:40.735Z,5.45
2018-03-16T06:14:40.708Z,5.50
2018-03-16T06:15:40.682Z,5.53
2018-03-16T06:16:40.656Z,5.48
2018-03-16T06:17:40.631Z,5.53
2018-03-16T06:18:40.605Z,5.52
2018-03-16T06:19:40.580Z,5.63
2018-03-16T06:20:40.553Z,5.64
2018-03-16T06:21:40.529Z,5.64
2018-03-16T06:22:40.500Z,5.67
2018-03-16T06:23:40.477Z,5.66
2018-03-16T06:24:40.450Z,5.74
2018-03-16T06:25:40.425Z,5.71
2018-03-16T06:26:40.398Z,5.78
2018-03-16T06:27:40.372Z,5.77
2018-03-16T06:28:40.346Z,5.89
2018-03-16T06:29:40.320Z,5.77
2018-03-16T06:30:40.295Z,5.83
2018-03-16T06:31:40.270Z,5.86
2018-03-16T06:32:41.746Z,5.92
2018-03-16T06:33:40.221Z,5.92
2018-03-16T06:34:40.192Z,6.01
2018-03-16T06:35:40.166Z,6.00
2018-03-16T06:36:40.141Z,6.11
2018-03-16T06:37:40.119Z,6.09
2018-03-16T06:38:40.840Z,6.11
2018-03-16T06:39:40.065Z,6.16
2018-03-16T06:40:40.041Z,6.28
2018-03-16T06:41:40.013Z,6.14
2018-03-16T06:42:39.989Z,6.14
2018-03-16T06:43:39.963Z,6.13
2018-03-16T06:44:39.957Z,6.21
2018-03-16T06:45:39.912Z,6.28
2018-03-16T06:46:39.887Z,6.19
2018-03-16T06:47:39.863Z,6.11
2018-03-16T06:48:39.836Z,6.18
2018-03-16T06:49:39.810Z,6.07
2018-03-16T06:50:39.785Z,6.14
2018-03-16T06:51:39.761Z,6.19
2018-03-16T06:52:39.733Z,6.10
2018-03-16T06:53:39.708Z,6.07
2018-03-16T06:54:39.684Z,6.00
2018-03-16T06:55:39.658Z,6.00
2018-03-16T06:56:39.631Z,6.01
2018-03-16T06:57:39.608Z,6.11
2018-03-16T06:58:39.585Z,6.06
2018-03-16T06:59:39.556Z,5.96
2018-03-16T07:00:39.531Z,6.03
2018-03-16T07:01:39.504Z,6.14
2018-03-16T07:02:39.481Z,6.09
2018-03-16T07:03:39.453Z,6.07
2018-03-16T07:04:39.429Z,6.14
2018-03-16T07:05:39.405Z,6.11
2018-03-16T07:06:39.378Z,6.13
2018-03-16T07:07:39.353Z,6.13
2018-03-16T07:08:39.339Z,6.10
2018-03-16T07:09:39.300Z,6.26
2018-03-16T07:10:39.277Z,6.16
2018-03-16T07:11:39.253Z,6.04
2018-03-16T07:12:39.228Z,6.10
2018-03-16T07:13:39.198Z,6.13
2018-03-16T07:14:39.173Z,6.16
2018-03-16T07:15:39.147Z,6.29
2018-03-16T07:16:39.123Z,6.30
2018-03-16T07:17:39.099Z,6.35
2018-03-16T07:18:39.072Z,6.33
2018-03-16T07:19:39.047Z,6.38
2018-03-16T07:20:39.020Z,6.48
2018-03-16T07:21:38.995Z,6.56
2018-03-16T07:22:38.977Z,6.54
2018-03-16T07:23:38.946Z,6.54
2018-03-16T07:24:38.918Z,6.54
2018-03-16T07:25:38.894Z,6.59
2018-03-16T07:26:38.870Z,6.65
2018-03-16T07:27:38.844Z,6.65
2018-03-16T07:28:38.819Z,6.61
2018-03-16T07:29:38.807Z,6.71
2018-03-16T07:30:38.768Z,6.73
2018-03-16T07:31:38.742Z,6.84
2018-03-16T07:32:38.718Z,6.76
2018-03-16T07:33:38.693Z,6.81
2018-03-16T07:34:38.670Z,6.79
2018-03-16T07:35:38.641Z,6.81
2018-03-16T07:36:38.617Z,6.83
2018-03-16T07:37:38.593Z,6.86
2018-03-16T07:38:38.569Z,6.81
2018-03-16T07:39:38.541Z,6.80
2018-03-16T07:40:38.516Z,6.91
2018-03-16T07:41:38.491Z,6.95
2018-03-16T07:42:38.469Z,6.95
2018-03-16T07:43:38.444Z,6.97
2018-03-16T07:44:38.417Z,6.91
2018-03-16T07:45:38.393Z,6.91
2018-03-16T07:46:38.368Z,6.84
2018-03-16T07:47:38.350Z,6.94
2018-03-16T07:48:38.319Z,6.99
2018-03-16T07:49:38.292Z,7.05
2018-03-16T07:50:38.268Z,7.12
2018-03-16T07:51:38.242Z,7.05
2018-03-16T07:52:38.217Z,7.07
2018-03-16T07:53:38.195Z,7.24
2018-03-16T07:54:38.167Z,7.22
2018-03-16T07:55:38.147Z,7.26
2018-03-16T07:56:38.117Z,7.29
2018-03-16T07:57:38.093Z,7.27
2018-03-16T07:58:38.069Z,7.32
2018-03-16T07:59:38.045Z,7.29
2018-03-16T08:00:38.019Z,7.34
2018-03-16T08:01:37.996Z,7.32
2018-03-16T08:02:37.971Z,7.34
2018-03-16T08:03:38.697Z,7.35
2018-03-16T08:04:37.921Z,7.29
2018-03-16T08:05:37.898Z,7.35
2018-03-16T08:06:37.874Z,7.32
2018-03-16T08:07:37.850Z,7.40
2018-03-16T08:08:37.825Z,7.59
2018-03-16T08:09:37.798Z,7.74
2018-03-16T08:10:37.777Z,7.71
2018-03-16T08:11:37.752Z,7.72
2018-03-16T08:12:37.725Z,7.56
2018-03-16T08:13:37.701Z,7.72
2018-03-16T08:14:37.681Z,7.77
2018-03-16T08:15:37.657Z,7.93
2018-03-16T08:16:37.628Z,7.96
2018-03-16T08:17:37.602Z,7.84
2018-03-16T08:18:37.580Z,7.79
2018-03-16T08:19:37.556Z,7.81
2018-03-16T08:20:37.529Z,7.69
2018-03-16T08:21:37.506Z,7.85
2018-03-16T08:22:37.484Z,7.96
2018-03-16T08:23:37.459Z,7.96
2018-03-16T08:24:37.434Z,7.99
2018-03-16T08:25:37.414Z,8.11
2018-03-16T08:26:37.385Z,8.14
2018-03-16T08:27:37.361Z,8.07
2018-03-16T08:28:37.338Z,8.15
2018-03-16T08:29:37.315Z,8.15
2018-03-16T08:30:37.289Z,8.07
2018-03-16T08:31:37.265Z,8.28
2018-03-16T08:32:37.241Z,8.30
2018-03-16T08:33:37.218Z,8.40
2018-03-16T08:34:37.194Z,8.50
2018-03-16T08:35:37.172Z,8.65
2018-03-16T08:36:37.147Z,8.65
2018-03-16T08:37:37.124Z,8.86
2018-03-16T08:38:37.099Z,8.91
2018-03-16T08:39:37.076Z,8.99
2018-03-16T08:40:37.051Z,9.20
2018-03-16T08:41:37.032Z,9.02
2018-03-16T08:42:37.006Z,9.01
2018-03-16T08:43:36.982Z,9.01
2018-03-16T08:44:36.957Z,8.93
2018-03-16T08:45:36.934Z,8.87
2018-03-16T08:46:36.912Z,8.86
2018-03-16T08:47:36.887Z,8.73
2018-03-16T08:48:36.865Z,8.55
2018-03-16T08:49:36.839Z,8.45
2018-03-16T08:50:36.820Z,8.50
2018-03-16T08:51:36.796Z,8.51
2018-03-16T08:52:36.770Z,8.57
2018-03-16T08:53:36.748Z,8.50
2018-03-16T08:54:36.769Z,8.62
2018-03-16T08:55:36.702Z,8.57
2018-03-16T08:56:36.678Z,8.48
2018-03-16T08:57:36.656Z,8.48
2018-03-16T08:58:36.634Z,8.58
2018-03-16T08:59:36.608Z,8.39
2018-03-16T09:00:36.587Z,8.58
2018-03-16T09:01:36.561Z,8.57
2018-03-16T09:02:36.539Z,8.40
2018-03-16T09:03:36.513Z,8.60
2018-03-16T09:04:36.491Z,8.53
2018-03-16T09:05:36.469Z,8.57
2018-03-16T09:06:36.443Z,8.62
2018-03-16T09:07:36.420Z,8.66
2018-03-16T09:08:36.397Z,8.76
2018-03-16T09:09:36.374Z,8.87
2018-03-16T09:10:36.350Z,9.02
2018-03-16T09:11:36.328Z,8.99
2018-03-16T09:12:36.326Z,8.79
2018-03-16T09:13:36.280Z,8.86
2018-03-16T09:14:36.258Z,8.76
2018-03-16T09:15:36.233Z,8.76
2018-03-16T09:16:36.211Z,8.78
2018-03-16T09:17:36.187Z,8.72
2018-03-16T09:18:36.165Z,8.65
2018-03-16T09:19:36.140Z,8.71
2018-03-16T09:20:36.118Z,8.79
2018-03-16T09:21:36.094Z,9.01
2018-03-16T09:22:36.075Z,8.84
2018-03-16T09:23:36.048Z,8.69
2018-03-16T09:24:36.024Z,8.65
2018-03-16T09:25:36.007Z,8.76
2018-03-16T09:26:35.977Z,8.97
2018-03-16T09:27:35.954Z,8.86
2018-03-16T09:28:35.980Z,8.86
2018-03-16T09:29:35.907Z,8.87
2018-03-16T09:30:35.885Z,8.86
2018-03-16T09:31:35.863Z,9.05
2018-03-16T09:32:35.838Z,8.91
2018-03-16T09:33:35.816Z,9.13
2018-03-16T09:34:35.793Z,9.05
2018-03-16T09:35:35.769Z,9.06
2018-03-16T09:36:35.746Z,9.42
2018-03-16T09:37:35.723Z,9.43
2018-03-16T09:38:35.700Z,9.43
2018-03-16T09:39:35.678Z,9.60
2018-03-16T09:40:35.654Z,9.45
2018-03-16T09:41:35.630Z,9.25
2018-03-16T09:42:35.606Z,9.27
2018-03-16T09:43:35.584Z,9.49
2018-03-16T09:44:35.562Z,9.53
2018-03-16T09:45:35.538Z,9.68
2018-03-16T09:46:35.516Z,9.83
2018-03-16T09:47:35.494Z,9.79
2018-03-16T09:48:36.219Z,9.81
2018-03-16T09:49:35.447Z,9.79
2018-03-16T09:50:35.440Z,9.83
2018-03-16T09:51:35.403Z,9.96
2018-03-16T09:52:35.379Z,9.88
2018-03-16T09:53:35.357Z,9.81
2018-03-16T09:54:35.334Z,9.81
2018-03-16T09:55:35.312Z,9.64
2018-03-16T09:56:35.288Z,9.70
2018-03-16T09:57:35.265Z,9.64
2018-03-16T09:58:35.242Z,9.85
2018-03-16T09:59:35.221Z,9.93
2018-03-16T10:00:35.196Z,10.03
2018-03-16T10:01:35.174Z,10.12
2018-03-16T10:02:35.154Z,9.91
2018-03-16T10:03:35.133Z,9.64
2018-03-16T10:04:35.107Z,9.70
2018-03-16T10:05:35.085Z,9.61
2018-03-16T10:06:35.063Z,9.85
2018-03-16T10:07:35.046Z,9.70
2018-03-16T10:08:35.016Z,9.57
2018-03-16T10:09:34.996Z,9.60
2018-03-16T10:10:34.986Z,9.53
2018-03-16T10:11:34.950Z,9.40
2018-03-16T10:12:34.929Z,9.49
2018-03-16T10:13:34.904Z,9.34
2018-03-16T10:14:34.883Z,9.34
2018-03-16T10:15:34.858Z,9.30
2018-03-16T10:16:34.836Z,9.42
2018-03-16T10:17:34.814Z,9.57
2018-03-16T10:18:34.797Z,9.58
2018-03-16T10:19:34.767Z,9.78
2018-03-16T10:20:34.845Z,9.91
2018-03-16T10:21:34.724Z,9.93
2018-03-16T10:22:34.699Z,9.89
2018-03-16T10:23:34.676Z,9.85
2018-03-16T10:24:34.654Z,9.94
2018-03-16T10:25:34.684Z,10.00
2018-03-16T10:26:34.610Z,10.01
2018-03-16T10:27:34.585Z,9.96
2018-03-16T10:28:34.565Z,9.97
2018-03-16T10:29:34.542Z,10.07
2018-03-16T10:30:34.518Z,10.10
2018-03-16T10:31:34.497Z,10.19
2018-03-16T10:32:34.473Z,10.17
2018-03-16T10:33:34.451Z,10.21
2018-03-16T10:34:34.430Z,9.96
2018-03-16T10:35:34.406Z,9.91
2018-03-16T10:36:34.384Z,9.82
2018-03-16T10:37:34.361Z,9.85
2018-03-16T10:38:34.340Z,9.81
2018-03-16T10:39:34.318Z,9.64
2018-03-16T10:40:34.296Z,9.71
2018-03-16T10:41:34.273Z,9.67
2018-03-16T10:42:34.251Z,9.43
2018-03-16T10:43:34.240Z,9.58
2018-03-16T10:44:34.249Z,9.64
2018-03-16T10:45:34.184Z,9.71
2018-03-16T10:46:34.160Z,9.68
2018-03-16T10:47:34.137Z,9.83
2018-03-16T10:48:34.115Z,9.71
2018-03-16T10:49:34.091Z,9.76
2018-03-16T10:50:34.069Z,9.75
2018-03-16T10:51:34.046Z,9.83
2018-03-16T10:52:34.023Z,9.75
2018-03-16T10:53:34.001Z,9.89
2018-03-16T10:54:33.978Z,9.79
2018-03-16T10:55:33.957Z,9.83
2018-03-16T10:56:33.932Z,9.83
2018-03-16T10:57:33.911Z,9.82
2018-03-16T10:58:33.888Z,9.78
2018-03-16T10:59:33.867Z,9.68
2018-03-16T11:00:33.841Z,9.68
2018-03-16T11:01:33.820Z,9.83
2018-03-16T11:02:33.819Z,9.81
2018-03-16T11:03:33.772Z,9.85
2018-03-16T11:04:33.750Z,9.85
2018-03-16T11:05:33.726Z,9.70
2018-03-16T11:06:33.708Z,9.71
2018-03-16T11:07:36.684Z,9.73
2018-03-16T11:08:33.667Z,9.63
2018-03-16T11:09:33.639Z,9.60
2018-03-16T11:10:33.614Z,9.48
2018-03-16T11:11:33.589Z,9.38
2018-03-16T11:12:33.566Z,9.42
2018-03-16T11:13:33.543Z,9.46
2018-03-16T11:14:33.521Z,9.46
2018-03-16T11:15:33.498Z,9.46
2018-03-16T11:16:33.475Z,9.35
2018-03-16T11:17:33.451Z,9.43
2018-03-16T11:18:33.429Z,9.20
2018-03-16T11:19:33.408Z,9.06
2018-03-16T11:20:33.386Z,9.06
2018-03-16T11:21:33.360Z,9.06
2018-03-16T11:22:33.337Z,8.99
2018-03-16T11:23:33.330Z,9.16
2018-03-16T11:24:33.289Z,9.12
2018-03-16T11:25:33.267Z,9.18
2018-03-16T11:26:33.244Z,9.38
2018-03-16T11:27:33.223Z,9.45
2018-03-16T11:28:33.197Z,9.48
2018-03-16T11:29:33.174Z,9.53
2018-03-16T11:30:33.152Z,9.78
2018-03-16T11:31:33.132Z,9.73
2018-03-16T11:32:33.104Z,10.06
2018-03-16T11:33:33.081Z,9.96
2018-03-16T11:34:33.060Z,9.96
2018-03-16T11:35:33.038Z,9.85
2018-03-16T11:36:33.015Z,9.86
2018-03-16T11:37:32.995Z,10.19
2018-03-16T11:38:32.968Z,10.52
2018-03-16T11:39:32.945Z,10.47
2018-03-16T11:40:32.924Z,10.40
2018-03-16T11:41:32.902Z,10.28
2018-03-16T11:42:32.883Z,10.40
2018-03-16T11:43:32.855Z,10.62
2018-03-16T11:44:32.838Z,10.77
2018-03-16T11:45:32.810Z,10.96
2018-03-16T11:46:32.790Z,11.10
2018-03-16T11:47:32.766Z,11.13
2018-03-16T11:48:32.744Z,11.07
2018-03-16T11:49:32.722Z,11.01
2018-03-16T11:50:32.700Z,11.24
2018-03-16T11:51:32.677Z,11.24
2018-03-16T11:52:32.655Z,11.14
2018-03-16T11:53:32.633Z,11.24
2018-03-16T11:54:32.610Z,11.19
2018-03-16T11:55:32.589Z,10.99
2018-03-16T11:56:32.565Z,10.98
2018-03-16T11:57:32.548Z,11.13
2018-03-16T11:58:32.522Z,11.07
2018-03-16T11:59:32.501Z,11.24
2018-03-16T12:00:32.478Z,11.32
2018-03-16T12:01:32.459Z,11.36
2018-03-16T12:02:32.434Z,11.49
2018-03-16T12:03:32.427Z,11.64
2018-03-16T12:04:32.394Z,11.53
2018-03-16T12:05:32.369Z,11.61
2018-03-16T12:06:32.347Z,11.52
2018-03-16T12:07:32.331Z,11.53
2018-03-16T12:08:32.304Z,11.25
2018-03-16T12:09:32.282Z,11.24
2018-03-16T12:10:32.260Z,11.28
2018-03-16T12:11:32.238Z,11.44
2018-03-16T12:12:32.217Z,11.54
2018-03-16T12:13:32.210Z,11.68
2018-03-16T12:14:32.174Z,11.75
2018-03-16T12:15:32.155Z,11.83
2018-03-16T12:16:32.881Z,11.87
2018-03-16T12:17:32.111Z,11.89
2018-03-16T12:18:32.088Z,12.11
2018-03-16T12:19:32.067Z,12.20
2018-03-16T12:20:32.051Z,12.15
2018-03-16T12:21:32.027Z,12.16
2018-03-16T12:22:32.009Z,12.13
2018-03-16T12:23:31.983Z,11.83
2018-03-16T12:24:31.965Z,11.89
2018-03-16T12:25:31.940Z,12.06
2018-03-16T12:26:31.923Z,12.15
2018-03-16T12:27:31.901Z,12.01
2018-03-16T12:28:49.373Z,11.99
2018-03-16T12:29:31.857Z,11.75
2018-03-16T12:30:31.842Z,11.68
2018-03-16T12:31:31.817Z,11.44
2018-03-16T12:32:31.794Z,11.34
2018-03-16T12:33:31.774Z,11.27
2018-03-16T12:34:31.754Z,11.09
2018-03-16T12:35:31.732Z,11.21
2018-03-16T12:36:31.711Z,11.16
2018-03-16T12:37:32.452Z,11.16
2018-03-16T12:38:31.696Z,11.03
2018-03-16T12:39:31.647Z,11.07
2018-03-16T12:40:31.628Z,11.16
2018-03-16T12:41:31.604Z,11.19
2018-03-16T12:43:31.564Z,11.32
2018-03-16T12:44:31.540Z,11.31
2018-03-16T12:45:31.517Z,11.29
2018-03-16T12:46:31.499Z,11.27
2018-03-16T12:47:31.475Z,11.24
2018-03-16T12:48:31.454Z,11.16
2018-03-16T12:49:31.433Z,11.09
2018-03-16T12:50:31.410Z,10.94
2018-03-16T12:51:31.388Z,11.17
2018-03-16T12:52:31.370Z,11.29
2018-03-16T12:53:31.354Z,11.27
2018-03-16T12:54:31.324Z,11.17
2018-03-16T12:55:31.302Z,11.17
2018-03-16T12:56:31.280Z,11.25
2018-03-16T12:57:31.259Z,11.25
2018-03-16T12:58:31.239Z,11.07
2018-03-16T12:59:31.216Z,11.31
2018-03-16T13:00:31.203Z,11.35
2018-03-16T13:01:31.171Z,11.43
2018-03-16T13:02:31.150Z,11.70
2018-03-16T13:03:31.129Z,11.70
2018-03-16T13:04:31.857Z,11.90
2018-03-16T13:05:31.087Z,11.90
2018-03-16T13:06:31.063Z,11.93
2018-03-16T13:07:31.043Z,11.74
2018-03-16T13:08:31.021Z,11.74
2018-03-16T13:09:31.002Z,11.68
2018-03-16T13:10:30.978Z,11.80
2018-03-16T13:11:30.959Z,11.70
2018-03-16T13:12:30.936Z,11.67
2018-03-16T13:13:30.916Z,11.65
2018-03-16T13:14:30.904Z,11.65
2018-03-16T13:15:30.874Z,11.59